Saint-Prime, Canada
Current Conditions -  °F | °C
As of 11:00 PM on Thursday 20 Nov 2014 (Local Time) from CYRJ Reporting Station
Snow Showers Snow Showers  
Wind Chill:   Ceiling: 3000
Heat Index: 19°   Visibility: 5mi
Dew Point: 18°   Wind: 9mph
Humidity: 93%   Direction: 310°NW
Pressure: 29.61"   Gusts: NA
Location:  48.6°N, 72.33°W
Report Text: CYRJ 210400Z 31008KT 5SM -SHSN FEW010 OVC030 M07/M08 A2961 RMK SF2SC6 SLP040
Loading
Personal Weather Stations






























Interactive Weather Map New forecast layout! Learn more

10-Day Weather Forecast

Advertisements
Track Severe Weather on mobile